createdAt,value
2018-03-06T00:01:13.602Z,22.4
2018-03-06T00:11:12.686Z,22.4
2018-03-06T00:21:12.138Z,22.6
2018-03-06T00:31:11.378Z,22.4
2018-03-06T00:41:11.440Z,22.4
2018-03-06T00:51:09.586Z,22.6
2018-03-06T01:01:08.699Z,22.4
2018-03-06T01:11:07.904Z,22.5
2018-03-06T01:21:07.035Z,22.4
2018-03-06T01:31:06.380Z,22.6
2018-03-06T01:41:05.569Z,22.4
2018-03-06T01:51:04.835Z,22.4
2018-03-06T02:01:03.946Z,22.4
2018-03-06T02:11:03.186Z,22.3
2018-03-06T02:21:02.437Z,22.3
2018-03-06T02:31:02.765Z,22.3
2018-03-06T02:41:00.653Z,22.2
2018-03-06T02:50:59.950Z,22.3
2018-03-06T03:00:59.533Z,22.3
2018-03-06T03:10:59.826Z,22.2
2018-03-06T03:20:57.499Z,22.1
2018-03-06T03:30:56.663Z,22.1
2018-03-06T03:40:55.853Z,22.3
2018-03-06T03:50:56.463Z,22.3
2018-03-06T04:00:54.451Z,22.1
2018-03-06T04:10:53.730Z,22.1
2018-03-06T04:20:53.016Z,22.1
2018-03-06T04:30:52.011Z,22.3
2018-03-06T04:40:51.705Z,22.3
2018-03-06T04:50:50.553Z,22.2
2018-03-06T05:00:49.833Z,22.1
2018-03-06T05:10:49.177Z,22.1
2018-03-06T05:20:47.944Z,22.3
2018-03-06T05:30:47.492Z,22.2
2018-03-06T05:40:46.808Z,22.1
2018-03-06T05:50:45.894Z,22.1
2018-03-06T06:00:44.915Z,22
2018-03-06T06:10:43.966Z,21.9
2018-03-06T06:20:43.161Z,21.9
2018-03-06T06:30:42.425Z,21.8
2018-03-06T06:40:41.576Z,21.8
2018-03-06T06:50:40.774Z,21.8
2018-03-06T07:00:40.327Z,21.8
2018-03-06T07:10:39.251Z,21.8
2018-03-06T07:20:38.634Z,21.8
2018-03-06T07:30:37.994Z,21.8
2018-03-06T07:40:37.260Z,21.7
2018-03-06T07:50:36.012Z,21.8
2018-03-06T08:00:35.238Z,21.7
2018-03-06T08:10:34.801Z,21.7
2018-03-06T08:20:33.941Z,21.7
2018-03-06T08:30:32.802Z,21.7
2018-03-06T08:40:32.242Z,21.7
2018-03-06T08:50:31.461Z,21.6
2018-03-06T09:00:30.389Z,21.6
2018-03-06T09:10:29.847Z,21.6
2018-03-06T09:20:28.820Z,21.6
2018-03-06T09:30:28.148Z,21.6
2018-03-06T09:40:27.626Z,21.6
2018-03-06T09:50:26.534Z,21.6
2018-03-06T10:00:25.673Z,21.6
2018-03-06T10:10:24.841Z,21.6
2018-03-06T10:20:23.997Z,21.6
2018-03-06T10:30:23.406Z,21.6
2018-03-06T10:40:22.416Z,21.6
2018-03-06T10:50:21.795Z,21.6
2018-03-06T11:00:20.878Z,21.6
2018-03-06T11:10:20.298Z,21.6
2018-03-06T11:20:19.307Z,21.6
2018-03-06T11:30:18.598Z,21.6
2018-03-06T11:40:17.679Z,21.6
2018-03-06T11:50:16.816Z,21.6
2018-03-06T12:00:16.147Z,21.6
2018-03-06T12:10:15.386Z,21.6
2018-03-06T12:20:14.653Z,21.6
2018-03-06T12:30:14.012Z,21.6
2018-03-06T12:40:12.985Z,21.6
2018-03-06T12:50:12.238Z,21.6
2018-03-06T13:00:11.481Z,21.6
2018-03-06T13:10:10.760Z,21.6
2018-03-06T13:20:09.814Z,21.6
2018-03-06T13:30:08.856Z,21.6
2018-03-06T13:40:08.154Z,21.6
2018-03-06T13:50:07.608Z,21.6
2018-03-06T14:00:06.467Z,21.5
2018-03-06T14:10:05.708Z,21.5
2018-03-06T14:20:04.854Z,21.5
2018-03-06T14:30:04.127Z,21.5
2018-03-06T14:40:03.838Z,21.5
2018-03-06T14:50:02.544Z,21.5
2018-03-06T15:00:01.817Z,21.5
2018-03-06T15:10:01.028Z,21.5
2018-03-06T15:20:00.195Z,21.5
2018-03-06T15:29:59.306Z,21.5
2018-03-06T15:39:58.504Z,21.5
2018-03-06T15:49:57.740Z,21.5
2018-03-06T15:59:56.868Z,21.5
2018-03-06T16:09:56.072Z,21.6
2018-03-06T16:19:55.322Z,21.6
2018-03-06T16:29:54.655Z,21.6
2018-03-06T16:39:53.730Z,21.6
2018-03-06T16:49:52.970Z,21.6
2018-03-06T16:59:52.085Z,21.6
2018-03-06T17:09:51.633Z,21.6
2018-03-06T17:19:50.608Z,21.6
2018-03-06T17:29:49.734Z,21.6
2018-03-06T17:39:49.088Z,21.6
2018-03-06T17:49:48.326Z,21.6
2018-03-06T17:59:47.559Z,21.6
2018-03-06T18:09:46.511Z,21.6
2018-03-06T18:19:46.313Z,21.7
2018-03-06T18:29:45.349Z,21.8
2018-03-06T18:39:44.174Z,21.9
2018-03-06T18:49:43.627Z,21.9
2018-03-06T18:59:42.538Z,21.9
2018-03-06T19:09:41.858Z,21.9
2018-03-06T19:19:41.008Z,21.9
2018-03-06T19:29:40.541Z,21.9
2018-03-06T19:39:39.522Z,22.1
2018-03-06T19:49:38.964Z,22.3
2018-03-06T19:59:38.412Z,22.3
2018-03-06T20:09:37.504Z,22.4
2018-03-06T20:19:36.228Z,22.4
2018-03-06T20:29:35.516Z,22.3
2018-03-06T20:39:34.928Z,22.2
2018-03-06T20:49:34.143Z,22.1
2018-03-06T20:59:33.394Z,22.1
2018-03-06T21:09:32.340Z,22.3
2018-03-06T21:19:31.848Z,22.3
2018-03-06T21:29:30.686Z,22.3
2018-03-06T21:39:30.193Z,22.2
2018-03-06T21:49:29.342Z,22.2
2018-03-06T21:59:28.367Z,22.3
2018-03-06T22:09:27.579Z,22.3
2018-03-06T22:19:26.746Z,22.2
2018-03-06T22:29:26.393Z,22.2
2018-03-06T22:39:25.367Z,22.1
2018-03-06T22:49:24.381Z,22.1
2018-03-06T22:59:23.597Z,22.1
2018-03-06T23:09:22.946Z,22.1
2018-03-06T23:19:21.884Z,22.3
2018-03-06T23:29:21.246Z,22.3
2018-03-06T23:39:20.648Z,22.2
2018-03-06T23:49:19.595Z,22.1
2018-03-06T23:59:18.698Z,22.2
